createdAt,value
2018-11-14T00:00:25.810Z,89.74
2018-11-14T00:02:54.378Z,90.08
2018-11-14T00:05:22.884Z,89.41
2018-11-14T00:07:51.395Z,89.24
2018-11-14T00:10:20.358Z,89.43
2018-11-14T00:12:48.482Z,89.49
2018-11-14T00:15:18.302Z,89.70
2018-11-14T00:17:47.641Z,89.43
2018-11-14T00:20:16.166Z,89.05
2018-11-14T00:22:45.898Z,89.57
2018-11-14T00:25:14.530Z,89.61
2018-11-14T00:27:43.129Z,89.69
2018-11-14T00:30:14.211Z,89.59
2018-11-14T00:32:43.181Z,89.28
2018-11-14T00:35:12.395Z,90.02
2018-11-14T00:37:41.521Z,90.25
2018-11-14T00:40:11.821Z,90.20
2018-11-14T00:42:40.717Z,90.21
2018-11-14T00:45:11.263Z,89.98
2018-11-14T00:47:39.860Z,90.23
2018-11-14T00:50:09.213Z,90.15
2018-11-14T00:52:37.777Z,89.88
2018-11-14T00:55:08.704Z,90.21
2018-11-14T00:57:37.191Z,90.32
2018-11-14T01:00:08.737Z,89.86
2018-11-14T01:02:38.256Z,89.56
2018-11-14T01:05:07.765Z,89.51
2018-11-14T01:07:36.423Z,89.31
2018-11-14T01:10:06.508Z,89.72
2018-11-14T01:12:35.136Z,89.74
2018-11-14T01:15:03.903Z,90.00
2018-11-14T01:17:32.385Z,90.38
2018-11-14T01:20:00.908Z,90.38
2018-11-14T01:22:30.965Z,90.56
2018-11-14T01:24:59.588Z,90.93
2018-11-14T01:27:28.064Z,91.16
2018-11-14T01:29:56.571Z,91.06
2018-11-14T01:32:25.048Z,90.71
2018-11-14T01:34:53.536Z,90.40
2018-11-14T01:37:22.179Z,91.19
2018-11-14T01:39:50.699Z,90.74
2018-11-14T01:42:19.274Z,90.75
2018-11-14T01:44:47.951Z,90.95
2018-11-14T01:47:16.446Z,91.00
2018-11-14T01:49:45.076Z,91.07
2018-11-14T01:52:13.619Z,90.90
2018-11-14T01:54:42.132Z,90.99
2018-11-14T01:57:10.669Z,90.80
2018-11-14T01:59:39.172Z,90.98
2018-11-14T02:02:07.948Z,91.25
2018-11-14T02:04:36.747Z,91.03
2018-11-14T02:07:05.520Z,91.04
2018-11-14T02:09:34.023Z,91.24
2018-11-14T02:12:02.492Z,91.17
2018-11-14T02:14:31.096Z,90.92
2018-11-14T02:16:59.552Z,90.90
2018-11-14T02:19:28.005Z,90.73
2018-11-14T02:21:56.602Z,90.52
2018-11-14T02:24:25.053Z,90.97
2018-11-14T02:26:53.858Z,90.69
2018-11-14T02:29:22.507Z,91.18
2018-11-14T02:31:51.068Z,90.55
2018-11-14T02:34:19.604Z,90.90
2018-11-14T02:36:48.096Z,90.80
2018-11-14T02:39:16.731Z,90.86
2018-11-14T02:41:45.237Z,91.33
2018-11-14T02:44:13.754Z,91.09
2018-11-14T02:46:42.470Z,90.19
2018-11-14T02:49:10.961Z,89.55
2018-11-14T02:51:39.598Z,88.66
2018-11-14T02:54:08.067Z,88.46
2018-11-14T02:56:36.562Z,88.26
2018-11-14T02:59:05.195Z,88.08
2018-11-14T03:01:33.660Z,87.62
2018-11-14T03:05:26.794Z,88.03
2018-11-14T03:07:55.494Z,88.11
2018-11-14T03:10:23.963Z,87.75
2018-11-14T03:12:52.506Z,87.73
2018-11-14T03:15:22.219Z,88.09
2018-11-14T03:17:50.724Z,87.82
2018-11-14T03:20:20.300Z,88.01
2018-11-14T03:22:48.785Z,87.61
2018-11-14T03:25:17.370Z,87.27
2018-11-14T03:27:46.095Z,87.17
2018-11-14T03:30:16.836Z,87.34
2018-11-14T03:32:45.819Z,87.20
2018-11-14T03:35:14.891Z,87.54
2018-11-14T03:37:43.607Z,87.24
2018-11-14T03:40:13.819Z,86.75
2018-11-14T03:42:42.374Z,86.91
2018-11-14T03:45:12.428Z,86.71
2018-11-14T03:47:41.497Z,86.92
2018-11-14T03:50:10.435Z,86.63
2018-11-14T03:52:39.186Z,86.56
2018-11-14T03:55:07.734Z,86.97
2018-11-14T03:57:36.420Z,85.93
2018-11-14T04:00:08.398Z,86.00
2018-11-14T04:02:36.908Z,86.29
2018-11-14T04:05:06.309Z,87.06
2018-11-14T04:07:34.899Z,87.29
2018-11-14T04:10:03.781Z,86.96
2018-11-14T04:12:32.289Z,87.65
2018-11-14T04:15:00.792Z,87.43
2018-11-14T04:17:29.334Z,87.21
2018-11-14T04:19:58.232Z,87.55
2018-11-14T04:22:26.774Z,87.04
2018-11-14T04:24:55.274Z,87.11
2018-11-14T04:27:23.792Z,86.63
2018-11-14T04:29:52.383Z,86.86
2018-11-14T04:32:20.917Z,86.95
2018-11-14T04:34:49.403Z,86.74
2018-11-14T04:37:17.885Z,86.75
2018-11-14T04:39:46.416Z,86.46
2018-11-14T04:42:15.124Z,86.23
2018-11-14T04:44:43.655Z,86.57
2018-11-14T04:47:12.160Z,86.52
2018-11-14T04:49:40.691Z,86.38
2018-11-14T04:52:09.211Z,86.45
2018-11-14T04:54:38.014Z,86.02
2018-11-14T04:57:06.552Z,86.17
2018-11-14T04:59:35.069Z,86.49
2018-11-14T05:02:03.645Z,86.24
2018-11-14T05:04:32.265Z,86.23
2018-11-14T05:07:00.782Z,86.33
2018-11-14T05:09:29.344Z,86.27
2018-11-14T05:11:58.201Z,86.25
2018-11-14T05:14:26.678Z,86.28
2018-11-14T05:16:55.115Z,85.96
2018-11-14T05:19:23.724Z,86.50
2018-11-14T05:21:52.241Z,86.29
2018-11-14T05:24:20.779Z,86.16
2018-11-14T05:26:49.245Z,86.38
2018-11-14T05:29:17.775Z,86.48
2018-11-14T05:31:46.390Z,86.19
2018-11-14T05:34:14.942Z,85.85
2018-11-14T05:36:43.449Z,86.29
2018-11-14T05:39:12.823Z,86.32
2018-11-14T05:41:41.404Z,86.40
2018-11-14T05:44:10.086Z,86.58
2018-11-14T05:46:38.681Z,86.42
2018-11-14T05:49:07.372Z,86.13
2018-11-14T05:51:35.871Z,85.76
2018-11-14T05:54:04.539Z,85.30
2018-11-14T05:56:33.278Z,86.10
2018-11-14T05:59:03.990Z,85.99
2018-11-14T06:01:32.514Z,86.06
2018-11-14T06:04:01.077Z,86.05
2018-11-14T06:06:29.602Z,86.24
2018-11-14T06:08:58.176Z,85.98
2018-11-14T06:11:26.727Z,86.04
2018-11-14T06:13:55.476Z,86.28
2018-11-14T06:16:32.971Z,86.06
2018-11-14T06:19:02.905Z,85.86
2018-11-14T06:21:31.513Z,86.58
2018-11-14T06:24:00.121Z,86.28
2018-11-14T06:26:32.775Z,86.75
2018-11-14T06:29:01.684Z,86.22
2018-11-14T06:31:30.332Z,85.93
2018-11-14T06:33:58.902Z,85.62
2018-11-14T06:36:27.396Z,85.47
2018-11-14T06:38:55.964Z,85.33
2018-11-14T06:41:24.561Z,85.39
2018-11-14T06:43:53.304Z,84.75
2018-11-14T06:46:21.744Z,84.88
2018-11-14T06:48:50.287Z,84.92
2018-11-14T06:51:18.820Z,84.58
2018-11-14T06:53:47.390Z,84.34
2018-11-14T06:56:15.991Z,84.25
2018-11-14T06:58:44.598Z,84.30
2018-11-14T07:01:13.179Z,84.77
2018-11-14T07:03:41.768Z,84.11
2018-11-14T07:06:10.504Z,84.27
2018-11-14T07:08:39.025Z,84.36
2018-11-14T07:11:07.608Z,83.84
2018-11-14T07:13:37.543Z,83.81
2018-11-14T07:16:07.193Z,83.81
2018-11-14T07:18:36.300Z,83.65
2018-11-14T07:21:04.932Z,83.29
2018-11-14T07:23:33.936Z,83.50
2018-11-14T07:26:08.817Z,83.45
2018-11-14T07:28:37.875Z,82.92
2018-11-14T07:31:06.459Z,82.72
2018-11-14T07:33:34.992Z,82.82
2018-11-14T07:36:03.506Z,82.96
2018-11-14T07:38:35.528Z,81.99
2018-11-14T07:41:06.193Z,83.01
2018-11-14T07:43:37.452Z,82.27
2018-11-14T07:46:06.643Z,82.31
2018-11-14T07:48:44.260Z,81.64
2018-11-14T07:51:23.168Z,81.54
2018-11-14T07:54:23.216Z,80.11
2018-11-14T07:56:52.143Z,80.82
2018-11-14T07:59:25.755Z,79.99
2018-11-14T08:01:55.635Z,79.52
2018-11-14T08:04:27.379Z,78.69
2018-11-14T08:07:00.858Z,78.62
2018-11-14T08:09:36.599Z,78.53
2018-11-14T08:12:05.714Z,78.15
2018-11-14T08:14:51.808Z,78.96
2018-11-14T08:17:41.926Z,78.80
2018-11-14T08:20:23.318Z,78.30
2018-11-14T08:22:53.088Z,77.79
2018-11-14T08:25:21.873Z,77.54
2018-11-14T08:27:50.871Z,76.67
2018-11-14T08:30:20.574Z,77.90
2018-11-14T08:32:49.057Z,77.90
2018-11-14T08:35:17.847Z,78.22
2018-11-14T08:37:47.396Z,77.25
2018-11-14T08:40:15.900Z,75.80
2018-11-14T08:42:44.438Z,76.63
2018-11-14T08:45:13.114Z,77.95
2018-11-14T08:47:42.162Z,77.40
2018-11-14T08:50:15.313Z,77.93
2018-11-14T08:52:44.272Z,77.83
2018-11-14T08:55:13.721Z,78.91
2018-11-14T08:57:43.784Z,78.68
2018-11-14T09:00:15.228Z,77.90
2018-11-14T09:02:44.662Z,77.84
2018-11-14T09:05:13.169Z,78.07
2018-11-14T09:07:41.692Z,78.41
2018-11-14T09:10:13.060Z,78.14
2018-11-14T09:12:41.965Z,77.65
2018-11-14T09:15:12.546Z,77.63
2018-11-14T09:17:41.176Z,77.59
2018-11-14T09:20:13.476Z,77.66
2018-11-14T09:22:42.465Z,77.82
2018-11-14T09:25:12.932Z,78.15
2018-11-14T09:27:41.953Z,77.50
2018-11-14T09:30:15.869Z,77.33
2018-11-14T09:32:44.417Z,77.05
2018-11-14T09:35:15.083Z,76.18
2018-11-14T09:37:43.756Z,75.93
2018-11-14T09:40:13.939Z,76.00
2018-11-14T09:42:42.496Z,75.49
2018-11-14T09:45:13.274Z,75.40
2018-11-14T09:47:42.323Z,75.26
2018-11-14T09:50:22.722Z,74.64
2018-11-14T09:52:53.321Z,73.79
2018-11-14T09:55:21.947Z,73.99
2018-11-14T09:57:50.619Z,73.41
2018-11-14T10:00:21.195Z,72.83
2018-11-14T10:02:52.638Z,72.66
2018-11-14T10:05:22.870Z,71.85
2018-11-14T10:07:51.506Z,71.37
2018-11-14T10:10:21.219Z,70.86
2018-11-14T10:12:50.582Z,70.59
2018-11-14T10:15:21.635Z,69.55
2018-11-14T10:19:15.561Z,68.12
2018-11-14T10:21:44.770Z,66.28
2018-11-14T10:24:13.407Z,65.31
2018-11-14T10:26:42.178Z,64.81
2018-11-14T10:29:10.802Z,63.56
2018-11-14T10:31:39.816Z,63.37
2018-11-14T10:34:09.045Z,60.70
2018-11-14T10:36:37.667Z,55.88
2018-11-14T10:39:09.575Z,54.87
2018-11-14T10:43:02.697Z,56.49
2018-11-14T10:45:31.291Z,55.34
2018-11-14T10:47:59.831Z,54.37
2018-11-14T10:50:29.160Z,52.22
2018-11-14T10:52:59.541Z,50.68
2018-11-14T10:55:28.130Z,50.42
2018-11-14T10:57:58.428Z,52.08
2018-11-14T11:00:32.555Z,49.72
2018-11-14T11:03:07.170Z,50.13
2018-11-14T11:05:41.886Z,48.73
2018-11-14T11:08:15.924Z,49.88
2018-11-14T11:10:52.551Z,51.95
2018-11-14T11:13:27.259Z,52.56
2018-11-14T11:16:01.083Z,51.93
2018-11-14T11:18:31.624Z,54.05
2018-11-14T11:21:00.179Z,54.81
2018-11-14T11:23:32.861Z,51.57
2018-11-14T11:26:02.394Z,53.50
2018-11-14T11:28:32.683Z,55.41
2018-11-14T11:31:01.414Z,56.94
2018-11-14T11:33:31.209Z,57.51
2018-11-14T11:35:59.808Z,52.61
2018-11-14T11:38:28.450Z,53.04
2018-11-14T11:40:56.984Z,52.04
2018-11-14T11:43:26.128Z,45.63
2018-11-14T11:45:55.694Z,46.11
2018-11-14T11:48:24.260Z,47.29
2018-11-14T11:50:53.830Z,46.43
2018-11-14T11:53:22.396Z,43.00
2018-11-14T11:55:50.943Z,42.35
2018-11-14T11:58:19.484Z,40.79
2018-11-14T12:00:48.630Z,41.53
2018-11-14T12:03:18.853Z,41.87
2018-11-14T12:05:50.826Z,42.47
2018-11-14T12:08:20.396Z,40.54
2018-11-14T12:10:49.031Z,38.92
2018-11-14T12:13:17.573Z,37.72
2018-11-14T12:15:46.213Z,39.44
2018-11-14T12:18:16.974Z,37.96
2018-11-14T12:20:45.893Z,40.52
2018-11-14T12:23:14.415Z,41.36
2018-11-14T12:25:43.704Z,41.00
2018-11-14T12:28:12.330Z,37.43
2018-11-14T12:30:40.913Z,39.13
2018-11-14T12:33:09.597Z,39.51
2018-11-14T12:35:38.374Z,38.25
2018-11-14T12:38:07.265Z,37.72
2018-11-14T12:40:35.976Z,38.39
2018-11-14T12:43:04.665Z,40.62
2018-11-14T12:45:33.535Z,38.23
2018-11-14T12:48:02.191Z,37.96
2018-11-14T12:50:30.840Z,36.86
2018-11-14T12:52:59.474Z,36.97
2018-11-14T12:55:28.062Z,35.91
2018-11-14T12:57:56.785Z,38.19
2018-11-14T13:00:25.808Z,39.55
2018-11-14T13:02:54.707Z,40.61
2018-11-14T13:05:23.564Z,38.31
2018-11-14T13:07:53.376Z,44.75
2018-11-14T13:10:22.420Z,48.32
2018-11-14T13:12:51.566Z,41.13
2018-11-14T13:15:22.835Z,39.99
2018-11-14T13:17:57.040Z,39.45
2018-11-14T13:20:34.318Z,43.23
2018-11-14T13:23:09.360Z,41.04
2018-11-14T13:25:39.667Z,41.38
2018-11-14T13:28:08.257Z,40.23
2018-11-14T13:30:36.946Z,38.33
2018-11-14T13:33:12.489Z,40.11
2018-11-14T13:35:41.670Z,40.13
2018-11-14T13:38:13.637Z,42.16
2018-11-14T13:40:47.902Z,43.96
2018-11-14T13:43:16.554Z,40.67
2018-11-14T13:45:45.124Z,45.95
2018-11-14T13:48:13.711Z,44.00
2018-11-14T13:50:42.490Z,45.04
2018-11-14T13:53:11.227Z,44.18
2018-11-14T13:55:40.702Z,49.38
2018-11-14T13:58:09.400Z,53.89
2018-11-14T14:00:37.949Z,56.99
2018-11-14T14:03:07.074Z,57.97
2018-11-14T14:05:35.808Z,60.00
2018-11-14T14:08:05.494Z,60.40
2018-11-14T14:10:34.037Z,62.05
2018-11-14T14:13:02.553Z,60.25
2018-11-14T14:15:31.161Z,61.04
2018-11-14T14:17:59.696Z,60.77
2018-11-14T14:20:32.163Z,61.61
2018-11-14T14:23:05.484Z,61.11
2018-11-14T14:25:35.228Z,62.30
2018-11-14T14:28:04.179Z,62.54
2018-11-14T14:30:32.795Z,63.56
2018-11-14T14:33:02.033Z,63.20
2018-11-14T14:35:35.463Z,63.55
2018-11-14T14:38:04.750Z,63.76
2018-11-14T14:40:33.732Z,64.12
2018-11-14T14:43:04.989Z,65.40
2018-11-14T14:45:33.969Z,64.42
2018-11-14T14:48:02.455Z,65.93
2018-11-14T14:50:31.291Z,65.04
2018-11-14T14:53:09.012Z,65.95
2018-11-14T14:55:40.374Z,65.73
2018-11-14T14:58:10.289Z,66.38
2018-11-14T15:00:38.850Z,66.96
2018-11-14T15:03:07.570Z,67.46
2018-11-14T15:05:36.175Z,68.34
2018-11-14T15:08:04.828Z,68.84
2018-11-14T15:10:38.072Z,69.94
2018-11-14T15:13:14.024Z,71.09
2018-11-14T15:15:43.507Z,70.83
2018-11-14T15:18:11.983Z,71.49
2018-11-14T15:20:40.641Z,72.35
2018-11-14T15:23:14.857Z,72.49
2018-11-14T15:25:43.825Z,72.63
2018-11-14T15:28:12.400Z,72.83
2018-11-14T15:30:41.731Z,73.91
2018-11-14T15:33:10.758Z,75.40
2018-11-14T15:35:39.436Z,76.20
2018-11-14T15:38:08.008Z,76.61
2018-11-14T15:40:36.785Z,76.97
2018-11-14T15:43:05.541Z,77.47
2018-11-14T15:45:38.100Z,77.37
2018-11-14T15:48:06.676Z,77.05
2018-11-14T15:50:35.285Z,77.17
2018-11-14T15:53:03.959Z,79.05
2018-11-14T15:55:32.486Z,78.05
2018-11-14T15:58:02.778Z,78.45
2018-11-14T16:00:32.855Z,78.95
2018-11-14T16:03:01.464Z,79.53
2018-11-14T16:05:31.070Z,79.62
2018-11-14T16:08:01.404Z,79.64
2018-11-14T16:10:30.962Z,80.18
2018-11-14T16:12:59.489Z,80.56
2018-11-14T16:15:29.652Z,80.83
2018-11-14T16:17:58.251Z,81.11
2018-11-14T16:20:27.356Z,81.26
2018-11-14T16:22:55.972Z,81.33
2018-11-14T16:25:25.690Z,80.84
2018-11-14T16:27:58.358Z,81.11
2018-11-14T16:30:28.343Z,81.59
2018-11-14T16:32:58.242Z,82.31
2018-11-14T16:35:27.099Z,82.28
2018-11-14T16:37:55.815Z,82.10
2018-11-14T16:40:25.445Z,82.13
2018-11-14T16:42:55.921Z,82.48
2018-11-14T16:45:24.685Z,83.04
2018-11-14T16:47:53.273Z,83.61
2018-11-14T16:50:22.803Z,85.33
2018-11-14T16:52:51.290Z,85.16
2018-11-14T16:55:20.726Z,84.11
2018-11-14T16:57:50.470Z,83.83
2018-11-14T17:00:22.480Z,84.33
2018-11-14T17:02:51.060Z,84.41
2018-11-14T17:05:20.385Z,84.56
2018-11-14T17:07:50.231Z,84.58
2018-11-14T17:10:19.945Z,85.14
2018-11-14T17:12:49.503Z,84.96
2018-11-14T17:15:19.440Z,85.91
2018-11-14T17:17:52.917Z,86.27
2018-11-14T17:20:22.032Z,86.32
2018-11-14T17:22:52.235Z,85.86
2018-11-14T17:25:20.920Z,85.69
2018-11-14T17:27:51.269Z,85.36
2018-11-14T17:30:21.841Z,85.85
2018-11-14T17:32:50.528Z,86.40
2018-11-14T17:35:19.268Z,86.56
2018-11-14T17:37:47.892Z,86.51
2018-11-14T17:40:23.772Z,87.07
2018-11-14T17:42:53.053Z,87.08
2018-11-14T17:45:23.586Z,88.38
2018-11-14T17:47:52.684Z,87.60
2018-11-14T17:50:23.911Z,87.29
2018-11-14T17:52:53.193Z,87.04
2018-11-14T17:55:25.346Z,88.29
2018-11-14T17:57:54.262Z,88.63
2018-11-14T18:00:24.169Z,88.70
2018-11-14T18:02:52.778Z,88.56
2018-11-14T18:05:22.629Z,88.20
2018-11-14T18:07:52.434Z,88.26
2018-11-14T18:10:23.234Z,87.34
2018-11-14T18:12:53.091Z,87.76
2018-11-14T18:15:21.745Z,87.88
2018-11-14T18:17:55.043Z,87.51
2018-11-14T18:20:24.976Z,88.26
2018-11-14T18:22:54.113Z,87.89
2018-11-14T18:25:22.732Z,88.27
2018-11-14T18:27:51.213Z,88.98
2018-11-14T18:30:21.451Z,87.73
2018-11-14T18:32:50.332Z,87.44
2018-11-14T18:35:20.008Z,87.96
2018-11-14T18:37:49.288Z,87.73
2018-11-14T18:40:19.288Z,87.25
2018-11-14T18:42:48.156Z,87.41
2018-11-14T18:45:22.031Z,87.69
2018-11-14T18:47:50.796Z,87.97
2018-11-14T18:50:20.112Z,87.27
2018-11-14T18:52:49.062Z,86.69
2018-11-14T18:55:18.754Z,86.21
2018-11-14T18:57:47.639Z,87.03
2018-11-14T19:00:18.581Z,87.53
2018-11-14T19:02:47.091Z,86.93
2018-11-14T19:05:16.240Z,87.01
2018-11-14T19:07:44.846Z,86.89
2018-11-14T19:10:15.524Z,87.40
2018-11-14T19:12:44.651Z,87.39
2018-11-14T19:15:15.351Z,87.79
2018-11-14T19:17:43.970Z,87.91
2018-11-14T19:20:14.475Z,87.27
2018-11-14T19:22:43.564Z,88.05
2018-11-14T19:25:13.447Z,87.48
2018-11-14T19:27:42.604Z,86.76
2018-11-14T19:30:13.600Z,87.53
2018-11-14T19:32:43.462Z,87.61
2018-11-14T19:35:12.867Z,87.36
2018-11-14T19:37:42.630Z,87.57
2018-11-14T19:40:13.927Z,87.54
2018-11-14T19:42:43.170Z,88.03
2018-11-14T19:45:14.367Z,87.79
2018-11-14T19:47:43.712Z,87.49
2018-11-14T19:50:13.750Z,87.69
2018-11-14T19:52:42.800Z,88.30
2018-11-14T19:55:13.132Z,87.65
2018-11-14T19:57:42.831Z,88.39
2018-11-14T20:00:13.394Z,88.00
2018-11-14T20:02:42.227Z,88.67
2018-11-14T20:05:12.582Z,88.20
2018-11-14T20:07:41.135Z,89.09
2018-11-14T20:10:12.482Z,89.11
2018-11-14T20:12:41.228Z,89.61
2018-11-14T20:15:12.243Z,89.56
2018-11-14T20:17:42.605Z,89.00
2018-11-14T20:20:16.071Z,89.72
2018-11-14T20:22:45.324Z,89.45
2018-11-14T20:25:14.076Z,89.42
2018-11-14T20:27:42.851Z,89.43
2018-11-14T20:30:15.799Z,89.89
2018-11-14T20:32:44.412Z,89.76
2018-11-14T20:35:14.239Z,89.78
2018-11-14T20:37:43.476Z,89.71
2018-11-14T20:40:14.084Z,90.11
2018-11-14T20:42:43.258Z,90.37
2018-11-14T20:45:15.989Z,90.49
2018-11-14T20:47:46.799Z,90.21
2018-11-14T20:50:17.280Z,89.63
2018-11-14T20:52:46.661Z,89.16
2018-11-14T20:55:15.149Z,88.95
2018-11-14T20:57:44.207Z,88.79
2018-11-14T21:00:21.631Z,88.01
2018-11-14T21:02:50.566Z,88.46
2018-11-14T21:05:20.622Z,88.70
2018-11-14T21:07:49.909Z,88.61
2018-11-14T21:10:20.374Z,87.62
2018-11-14T21:12:51.622Z,88.17
2018-11-14T21:15:22.595Z,88.41
2018-11-14T21:17:51.991Z,88.57
2018-11-14T21:20:20.864Z,88.24
2018-11-14T21:22:49.774Z,88.27
2018-11-14T21:25:19.747Z,88.29
2018-11-14T21:27:48.983Z,88.00
2018-11-14T21:30:20.386Z,87.88
2018-11-14T21:32:53.534Z,87.83
2018-11-14T21:35:31.976Z,88.21
2018-11-14T21:38:01.959Z,89.44
2018-11-14T21:40:30.492Z,88.82
2018-11-14T21:42:59.395Z,88.90
2018-11-14T21:45:28.910Z,89.00
2018-11-14T21:48:02.996Z,89.00
2018-11-14T21:50:32.244Z,88.87
2018-11-14T21:53:00.792Z,87.82
2018-11-14T21:55:29.346Z,88.80
2018-11-14T21:57:57.850Z,88.94
2018-11-14T22:00:37.716Z,88.72
2018-11-14T22:03:08.000Z,88.45
2018-11-14T22:05:37.124Z,88.08
2018-11-14T22:08:05.757Z,88.61
2018-11-14T22:10:34.310Z,88.22
2018-11-14T22:13:02.888Z,88.34
2018-11-14T22:15:33.257Z,88.69
2018-11-14T22:18:02.831Z,88.02
2018-11-14T22:20:32.129Z,88.04
2018-11-14T22:23:00.650Z,88.18
2018-11-14T22:25:29.925Z,88.94
2018-11-14T22:27:59.373Z,88.18
2018-11-14T22:30:29.360Z,88.94
2018-11-14T22:32:58.058Z,89.48
2018-11-14T22:35:27.984Z,88.46
2018-11-14T22:37:56.617Z,89.04
2018-11-14T22:40:26.436Z,89.41
2018-11-14T22:42:55.819Z,89.70
2018-11-14T22:45:26.341Z,90.01
2018-11-14T22:47:54.889Z,89.90
2018-11-14T22:50:24.440Z,89.94
2018-11-14T22:52:53.751Z,90.31
2018-11-14T22:55:24.053Z,89.56
2018-11-14T22:57:53.309Z,90.06
2018-11-14T23:00:24.746Z,90.18
2018-11-14T23:02:54.691Z,89.76
2018-11-14T23:05:23.149Z,89.02
2018-11-14T23:07:52.644Z,89.33
2018-11-14T23:10:21.980Z,88.79
2018-11-14T23:12:50.851Z,89.14
2018-11-14T23:15:20.083Z,89.61
2018-11-14T23:17:48.770Z,89.52
2018-11-14T23:20:17.641Z,88.98
2018-11-14T23:22:46.901Z,88.96
2018-11-14T23:25:15.993Z,89.59
2018-11-14T23:27:45.837Z,89.35
2018-11-14T23:30:15.385Z,89.12
2018-11-14T23:32:45.065Z,89.65
2018-11-14T23:35:16.472Z,89.60
2018-11-14T23:37:47.152Z,89.92
2018-11-14T23:40:15.653Z,89.29
2018-11-14T23:42:44.137Z,89.59
2018-11-14T23:45:13.905Z,90.31
2018-11-14T23:47:43.170Z,90.22
2018-11-14T23:50:14.825Z,90.00
2018-11-14T23:52:44.701Z,90.24
2018-11-14T23:55:13.601Z,90.09
2018-11-14T23:57:42.082Z,90.55
